sensor_id;sensor_type;location;lat;lon;timestamp;pressure;altitude;pressure_sealevel;temperature;humidity
740;BME280;354;42.694;23.336;2023-04-15T00:00:22;94522.44;;;7.60;100.00
740;BME280;354;42.694;23.336;2023-04-15T00:02:47;94526.03;;;7.65;100.00
740;BME280;354;42.694;23.336;2023-04-15T00:05:12;94539.19;;;7.84;100.00
740;BME280;354;42.694;23.336;2023-04-15T00:07:38;94548.81;;;7.97;100.00
740;BME280;354;42.694;23.336;2023-04-15T00:10:04;94557.16;;;8.12;100.00
740;BME280;354;42.694;23.336;2023-04-15T00:12:30;94539.31;;;8.27;100.00
740;BME280;354;42.694;23.336;2023-04-15T00:14:55;94543.03;;;8.44;100.00
740;BME280;354;42.694;23.336;2023-04-15T00:17:23;94547.25;;;8.45;100.00
740;BME280;354;42.694;23.336;2023-04-15T00:19:48;94552.34;;;8.34;100.00
740;BME280;354;42.694;23.336;2023-04-15T00:22:13;94552.56;;;8.32;100.00
740;BME280;354;42.694;23.336;2023-04-15T00:24:39;94502.78;;;8.07;100.00
740;BME280;354;42.694;23.336;2023-04-15T00:27:05;94542.50;;;8.36;100.00
740;BME280;354;42.694;23.336;2023-04-15T00:29:30;94532.84;;;8.30;100.00
740;BME280;354;42.694;23.336;2023-04-15T00:31:56;94542.09;;;8.32;100.00
740;BME280;354;42.694;23.336;2023-04-15T00:34:22;94537.28;;;8.29;100.00
740;BME280;354;42.694;23.336;2023-04-15T00:36:48;94537.03;;;8.37;100.00
740;BME280;354;42.694;23.336;2023-04-15T00:39:14;94543.56;;;8.53;100.00
740;BME280;354;42.694;23.336;2023-04-15T00:41:40;94544.38;;;8.54;100.00
740;BME280;354;42.694;23.336;2023-04-15T00:44:07;94562.41;;;8.68;100.00
740;BME280;354;42.694;23.336;2023-04-15T00:46:34;94559.50;;;8.77;100.00
740;BME280;354;42.694;23.336;2023-04-15T00:49:02;94551.72;;;8.88;100.00
740;BME280;354;42.694;23.336;2023-04-15T00:51:28;94546.91;;;8.85;100.00
740;BME280;354;42.694;23.336;2023-04-15T00:53:55;94540.34;;;8.76;100.00
740;BME280;354;42.694;23.336;2023-04-15T00:56:20;94519.28;;;8.64;100.00
740;BME280;354;42.694;23.336;2023-04-15T00:58:49;94538.59;;;8.70;100.00
740;BME280;354;42.694;23.336;2023-04-15T01:01:16;94536.28;;;8.55;100.00
740;BME280;354;42.694;23.336;2023-04-15T01:03:42;94530.78;;;8.38;100.00
740;BME280;354;42.694;23.336;2023-04-15T01:06:09;94556.75;;;8.40;100.00
740;BME280;354;42.694;23.336;2023-04-15T01:08:35;94534.81;;;8.34;100.00
740;BME280;354;42.694;23.336;2023-04-15T01:11:01;94556.13;;;8.44;100.00
740;BME280;354;42.694;23.336;2023-04-15T01:13:28;94561.91;;;8.53;100.00
740;BME280;354;42.694;23.336;2023-04-15T01:15:55;94565.75;;;8.51;100.00
740;BME280;354;42.694;23.336;2023-04-15T01:18:21;94544.91;;;8.37;100.00
740;BME280;354;42.694;23.336;2023-04-15T01:20:47;94557.56;;;8.40;100.00
740;BME280;354;42.694;23.336;2023-04-15T01:23:12;94548.50;;;8.43;100.00
740;BME280;354;42.694;23.336;2023-04-15T01:25:38;94548.31;;;8.38;100.00
740;BME280;354;42.694;23.336;2023-04-15T01:28:04;94530.66;;;8.27;100.00
740;BME280;354;42.694;23.336;2023-04-15T01:30:32;94547.53;;;8.37;100.00
740;BME280;354;42.694;23.336;2023-04-15T01:32:58;94530.88;;;8.25;100.00
740;BME280;354;42.694;23.336;2023-04-15T01:35:24;94540.56;;;8.18;100.00
740;BME280;354;42.694;23.336;2023-04-15T01:37:49;94545.16;;;7.98;100.00
740;BME280;354;42.694;23.336;2023-04-15T01:40:15;94544.38;;;7.90;100.00
740;BME280;354;42.694;23.336;2023-04-15T01:42:40;94542.91;;;7.70;100.00
740;BME280;354;42.694;23.336;2023-04-15T01:45:06;94553.78;;;7.66;100.00
740;BME280;354;42.694;23.336;2023-04-15T01:47:32;94534.97;;;7.45;100.00
740;BME280;354;42.694;23.336;2023-04-15T01:49:57;94550.19;;;7.61;100.00
740;BME280;354;42.694;23.336;2023-04-15T01:52:23;94557.09;;;7.49;100.00
740;BME280;354;42.694;23.336;2023-04-15T01:54:48;94565.97;;;7.41;100.00
740;BME280;354;42.694;23.336;2023-04-15T01:57:13;94567.22;;;7.38;100.00
740;BME280;354;42.694;23.336;2023-04-15T01:59:39;94567.25;;;7.32;100.00
740;BME280;354;42.694;23.336;2023-04-15T02:02:05;94571.66;;;7.31;100.00
740;BME280;354;42.694;23.336;2023-04-15T02:04:30;94561.22;;;7.25;100.00
740;BME280;354;42.694;23.336;2023-04-15T02:06:56;94551.00;;;7.10;100.00
740;BME280;354;42.694;23.336;2023-04-15T02:09:21;94556.47;;;6.95;100.00
740;BME280;354;42.694;23.336;2023-04-15T02:11:47;94579.78;;;7.10;100.00
740;BME280;354;42.694;23.336;2023-04-15T02:14:12;94566.28;;;7.06;100.00
740;BME280;354;42.694;23.336;2023-04-15T02:16:38;94578.72;;;7.24;100.00
740;BME280;354;42.694;23.336;2023-04-15T02:19:03;94567.41;;;7.30;100.00
740;BME280;354;42.694;23.336;2023-04-15T02:21:29;94568.88;;;7.26;100.00
740;BME280;354;42.694;23.336;2023-04-15T02:23:55;94571.28;;;7.21;100.00
740;BME280;354;42.694;23.336;2023-04-15T02:26:20;94573.34;;;7.06;100.00
740;BME280;354;42.694;23.336;2023-04-15T02:28:47;94564.28;;;7.02;100.00
740;BME280;354;42.694;23.336;2023-04-15T02:31:12;94567.16;;;6.94;100.00
740;BME280;354;42.694;23.336;2023-04-15T02:33:38;94563.72;;;6.80;100.00
740;BME280;354;42.694;23.336;2023-04-15T02:36:04;94565.56;;;6.53;100.00
740;BME280;354;42.694;23.336;2023-04-15T02:38:29;94567.19;;;6.47;100.00
740;BME280;354;42.694;23.336;2023-04-15T02:40:56;94580.66;;;6.57;100.00
740;BME280;354;42.694;23.336;2023-04-15T02:43:21;94569.41;;;6.57;100.00
740;BME280;354;42.694;23.336;2023-04-15T02:45:47;94548.31;;;6.32;100.00
740;BME280;354;42.694;23.336;2023-04-15T02:48:12;94568.22;;;6.33;100.00
740;BME280;354;42.694;23.336;2023-04-15T02:50:38;94583.06;;;6.32;100.00
740;BME280;354;42.694;23.336;2023-04-15T02:53:04;94583.25;;;6.31;100.00
740;BME280;354;42.694;23.336;2023-04-15T02:55:30;94586.28;;;6.21;100.00
740;BME280;354;42.694;23.336;2023-04-15T02:57:56;94581.81;;;6.08;100.00
740;BME280;354;42.694;23.336;2023-04-15T03:00:23;94582.03;;;5.94;100.00
740;BME280;354;42.694;23.336;2023-04-15T03:02:49;94581.56;;;5.84;100.00
740;BME280;354;42.694;23.336;2023-04-15T03:05:20;94600.44;;;5.86;100.00
740;BME280;354;42.694;23.336;2023-04-15T03:07:47;94597.38;;;5.75;100.00
740;BME280;354;42.694;23.336;2023-04-15T03:10:13;94590.13;;;5.58;100.00
740;BME280;354;42.694;23.336;2023-04-15T03:12:38;94580.03;;;5.41;100.00
740;BME280;354;42.694;23.336;2023-04-15T03:15:05;94600.84;;;5.28;100.00
740;BME280;354;42.694;23.336;2023-04-15T03:17:30;94599.63;;;5.31;100.00
740;BME280;354;42.694;23.336;2023-04-15T03:19:56;94599.81;;;5.22;100.00
740;BME280;354;42.694;23.336;2023-04-15T03:22:21;94597.16;;;5.16;100.00
740;BME280;354;42.694;23.336;2023-04-15T03:24:47;94588.22;;;4.97;100.00
740;BME280;354;42.694;23.336;2023-04-15T03:27:12;94570.91;;;4.83;100.00
740;BME280;354;42.694;23.336;2023-04-15T03:29:38;94609.97;;;4.83;100.00
740;BME280;354;42.694;23.336;2023-04-15T03:32:03;94619.03;;;4.87;100.00
740;BME280;354;42.694;23.336;2023-04-15T03:34:28;94613.47;;;4.90;100.00
740;BME280;354;42.694;23.336;2023-04-15T03:36:55;94626.53;;;4.96;100.00
740;BME280;354;42.694;23.336;2023-04-15T03:39:20;94633.78;;;5.01;100.00
740;BME280;354;42.694;23.336;2023-04-15T03:41:45;94625.56;;;5.04;100.00
740;BME280;354;42.694;23.336;2023-04-15T03:44:11;94619.88;;;4.94;100.00
740;BME280;354;42.694;23.336;2023-04-15T03:46:36;94648.22;;;5.03;100.00
740;BME280;354;42.694;23.336;2023-04-15T03:49:05;94639.44;;;5.11;100.00
740;BME280;354;42.694;23.336;2023-04-15T03:51:31;94628.38;;;5.02;100.00
740;BME280;354;42.694;23.336;2023-04-15T03:53:56;94644.88;;;5.16;100.00
740;BME280;354;42.694;23.336;2023-04-15T03:56:23;94644.50;;;5.19;100.00
740;BME280;354;42.694;23.336;2023-04-15T03:58:48;94655.75;;;5.26;100.00
740;BME280;354;42.694;23.336;2023-04-15T04:01:13;94648.16;;;5.32;100.00
740;BME280;354;42.694;23.336;2023-04-15T04:03:39;94646.25;;;5.47;100.00
740;BME280;354;42.694;23.336;2023-04-15T04:06:05;94638.22;;;5.48;100.00
740;BME280;354;42.694;23.336;2023-04-15T04:08:30;94639.47;;;5.59;100.00
740;BME280;354;42.694;23.336;2023-04-15T04:10:55;94644.91;;;5.64;100.00
740;BME280;354;42.694;23.336;2023-04-15T04:13:21;94635.09;;;5.66;100.00
740;BME280;354;42.694;23.336;2023-04-15T04:15:46;94634.34;;;5.79;100.00
740;BME280;354;42.694;23.336;2023-04-15T04:18:11;94646.88;;;6.03;100.00
740;BME280;354;42.694;23.336;2023-04-15T04:20:37;94654.19;;;6.21;100.00
740;BME280;354;42.694;23.336;2023-04-15T04:23:02;94659.19;;;6.43;100.00
740;BME280;354;42.694;23.336;2023-04-15T04:25:28;94649.59;;;6.56;100.00
740;BME280;354;42.694;23.336;2023-04-15T04:27:53;94633.53;;;6.66;100.00
740;BME280;354;42.694;23.336;2023-04-15T04:30:18;94635.31;;;6.99;100.00
740;BME280;354;42.694;23.336;2023-04-15T04:32:44;94644.09;;;7.24;100.00
740;BME280;354;42.694;23.336;2023-04-15T04:35:09;94655.28;;;7.58;100.00
740;BME280;354;42.694;23.336;2023-04-15T04:37:35;94648.78;;;7.80;100.00
740;BME280;354;42.694;23.336;2023-04-15T04:40:01;94650.91;;;8.03;100.00
740;BME280;354;42.694;23.336;2023-04-15T04:42:26;94643.88;;;8.29;100.00
740;BME280;354;42.694;23.336;2023-04-15T04:44:51;94634.28;;;8.54;100.00
740;BME280;354;42.694;23.336;2023-04-15T04:47:17;94658.97;;;8.96;100.00
740;BME280;354;42.694;23.336;2023-04-15T04:49:42;94659.78;;;9.40;100.00
740;BME280;354;42.694;23.336;2023-04-15T04:52:07;94653.59;;;9.71;100.00
740;BME280;354;42.694;23.336;2023-04-15T04:54:33;94655.00;;;10.22;100.00
740;BME280;354;42.694;23.336;2023-04-15T04:56:58;94637.56;;;10.10;100.00
740;BME280;354;42.694;23.336;2023-04-15T04:59:24;94665.09;;;10.07;100.00
740;BME280;354;42.694;23.336;2023-04-15T05:01:49;94655.88;;;9.68;100.00
740;BME280;354;42.694;23.336;2023-04-15T05:04:15;94665.31;;;9.87;100.00
740;BME280;354;42.694;23.336;2023-04-15T05:06:40;94674.09;;;9.81;100.00
740;BME280;354;42.694;23.336;2023-04-15T05:09:06;94672.03;;;9.83;100.00
740;BME280;354;42.694;23.336;2023-04-15T05:11:31;94688.91;;;9.75;100.00
740;BME280;354;42.694;23.336;2023-04-15T05:13:57;94692.09;;;9.77;100.00
740;BME280;354;42.694;23.336;2023-04-15T05:16:23;94689.59;;;10.19;100.00
740;BME280;354;42.694;23.336;2023-04-15T05:18:50;94695.50;;;10.15;100.00
740;BME280;354;42.694;23.336;2023-04-15T05:21:16;94694.09;;;10.49;100.00
740;BME280;354;42.694;23.336;2023-04-15T05:23:41;94698.78;;;10.89;100.00
740;BME280;354;42.694;23.336;2023-04-15T05:26:06;94700.22;;;11.26;100.00
740;BME280;354;42.694;23.336;2023-04-15T05:28:32;94697.94;;;11.77;100.00
740;BME280;354;42.694;23.336;2023-04-15T05:30:57;94695.50;;;12.39;100.00
740;BME280;354;42.694;23.336;2023-04-15T05:33:23;94689.63;;;12.94;100.00
740;BME280;354;42.694;23.336;2023-04-15T05:35:48;94696.63;;;13.34;100.00
740;BME280;354;42.694;23.336;2023-04-15T05:38:13;94660.38;;;13.46;93.50
740;BME280;354;42.694;23.336;2023-04-15T05:40:39;94684.25;;;13.73;91.95
740;BME280;354;42.694;23.336;2023-04-15T05:43:05;94688.47;;;13.18;88.63
740;BME280;354;42.694;23.336;2023-04-15T05:45:30;94683.09;;;13.13;86.81
740;BME280;354;42.694;23.336;2023-04-15T05:47:56;94695.63;;;12.89;87.84
740;BME280;354;42.694;23.336;2023-04-15T05:50:21;94692.91;;;13.01;85.49
740;BME280;354;42.694;23.336;2023-04-15T05:52:46;94685.03;;;12.73;86.91
740;BME280;354;42.694;23.336;2023-04-15T05:55:12;94699.97;;;12.67;87.62
740;BME280;354;42.694;23.336;2023-04-15T05:57:38;94705.22;;;13.24;85.70
740;BME280;354;42.694;23.336;2023-04-15T06:00:04;94707.97;;;13.51;83.95
740;BME280;354;42.694;23.336;2023-04-15T06:02:30;94699.09;;;14.84;77.43
740;BME280;354;42.694;23.336;2023-04-15T06:04:56;94695.44;;;15.96;71.68
740;BME280;354;42.694;23.336;2023-04-15T06:07:22;94711.16;;;16.81;65.24
740;BME280;354;42.694;23.336;2023-04-15T06:09:47;94698.50;;;17.44;62.83
740;BME280;354;42.694;23.336;2023-04-15T06:12:13;94723.72;;;18.78;58.45
740;BME280;354;42.694;23.336;2023-04-15T06:14:39;94720.81;;;19.58;53.73
740;BME280;354;42.694;23.336;2023-04-15T06:17:05;94718.00;;;19.78;52.19
740;BME280;354;42.694;23.336;2023-04-15T06:19:31;94734.22;;;20.11;49.97
740;BME280;354;42.694;23.336;2023-04-15T06:21:57;94726.09;;;19.68;50.44
740;BME280;354;42.694;23.336;2023-04-15T06:24:22;94717.53;;;20.00;49.36
740;BME280;354;42.694;23.336;2023-04-15T06:26:48;94727.59;;;19.79;48.60
740;BME280;354;42.694;23.336;2023-04-15T06:29:13;94733.59;;;18.67;51.92
740;BME280;354;42.694;23.336;2023-04-15T06:31:38;94740.75;;;17.46;53.85
740;BME280;354;42.694;23.336;2023-04-15T06:34:04;94737.81;;;15.86;58.39
740;BME280;354;42.694;23.336;2023-04-15T06:36:29;94737.00;;;14.89;63.73
740;BME280;354;42.694;23.336;2023-04-15T06:38:55;94714.47;;;13.99;67.94
740;BME280;354;42.694;23.336;2023-04-15T06:41:21;94753.31;;;13.60;72.84
740;BME280;354;42.694;23.336;2023-04-15T06:43:47;94746.81;;;12.88;78.50
740;BME280;354;42.694;23.336;2023-04-15T06:46:12;94727.19;;;12.27;84.36
740;BME280;354;42.694;23.336;2023-04-15T06:48:38;94754.63;;;12.55;85.11
740;BME280;354;42.694;23.336;2023-04-15T06:51:04;94737.16;;;12.65;86.28
740;BME280;354;42.694;23.336;2023-04-15T06:53:29;94742.84;;;12.74;85.96
740;BME280;354;42.694;23.336;2023-04-15T06:55:54;94749.41;;;12.72;85.83
740;BME280;354;42.694;23.336;2023-04-15T06:58:20;94748.69;;;12.48;87.43
740;BME280;354;42.694;23.336;2023-04-15T07:00:46;94746.81;;;12.60;88.99
740;BME280;354;42.694;23.336;2023-04-15T07:03:12;94745.72;;;12.73;88.16
740;BME280;354;42.694;23.336;2023-04-15T07:05:38;94724.78;;;12.66;87.33
740;BME280;354;42.694;23.336;2023-04-15T07:08:04;94747.81;;;12.71;88.06
740;BME280;354;42.694;23.336;2023-04-15T07:10:30;94741.63;;;12.36;89.93
740;BME280;354;42.694;23.336;2023-04-15T07:12:56;94758.63;;;12.57;89.56
740;BME280;354;42.694;23.336;2023-04-15T07:15:21;94737.50;;;12.69;88.39
740;BME280;354;42.694;23.336;2023-04-15T07:17:47;94735.38;;;12.83;86.34
740;BME280;354;42.694;23.336;2023-04-15T07:20:13;94738.75;;;12.95;88.54
740;BME280;354;42.694;23.336;2023-04-15T07:22:38;94740.69;;;13.00;85.47
740;BME280;354;42.694;23.336;2023-04-15T07:25:04;94736.06;;;12.50;85.04
740;BME280;354;42.694;23.336;2023-04-15T07:27:30;94750.69;;;12.69;87.75
740;BME280;354;42.694;23.336;2023-04-15T07:29:56;94751.09;;;12.78;85.80
740;BME280;354;42.694;23.336;2023-04-15T07:32:21;94738.25;;;12.81;84.93
740;BME280;354;42.694;23.336;2023-04-15T07:34:47;94743.47;;;12.93;84.46
740;BME280;354;42.694;23.336;2023-04-15T07:37:12;94751.50;;;13.15;82.12
740;BME280;354;42.694;23.336;2023-04-15T07:39:38;94741.59;;;12.77;82.38
740;BME280;354;42.694;23.336;2023-04-15T07:42:03;94735.75;;;12.75;83.83
740;BME280;354;42.694;23.336;2023-04-15T07:44:29;94746.13;;;13.10;82.34
740;BME280;354;42.694;23.336;2023-04-15T07:46:55;94720.38;;;13.17;81.96
740;BME280;354;42.694;23.336;2023-04-15T07:49:21;94747.78;;;13.28;80.24
740;BME280;354;42.694;23.336;2023-04-15T07:51:47;94727.78;;;13.32;82.48
740;BME280;354;42.694;23.336;2023-04-15T07:54:13;94761.56;;;13.63;81.49
740;BME280;354;42.694;23.336;2023-04-15T07:56:39;94763.50;;;13.68;79.46
740;BME280;354;42.694;23.336;2023-04-15T07:59:05;94763.84;;;13.93;78.12
740;BME280;354;42.694;23.336;2023-04-15T08:01:31;94766.03;;;14.18;76.67
740;BME280;354;42.694;23.336;2023-04-15T08:04:00;94770.06;;;14.43;77.03
740;BME280;354;42.694;23.336;2023-04-15T08:06:26;94751.94;;;14.52;73.52
740;BME280;354;42.694;23.336;2023-04-15T08:08:51;94755.50;;;14.62;71.03
740;BME280;354;42.694;23.336;2023-04-15T08:11:18;94755.94;;;14.54;69.45
740;BME280;354;42.694;23.336;2023-04-15T08:13:45;94749.25;;;14.30;69.03
740;BME280;354;42.694;23.336;2023-04-15T08:16:23;94764.09;;;14.31;68.74
740;BME280;354;42.694;23.336;2023-04-15T08:18:50;94765.44;;;14.33;67.86
740;BME280;354;42.694;23.336;2023-04-15T08:21:17;94758.34;;;14.39;67.40
740;BME280;354;42.694;23.336;2023-04-15T08:23:44;94760.06;;;14.67;66.27
740;BME280;354;42.694;23.336;2023-04-15T08:26:10;94741.75;;;14.65;63.37
740;BME280;354;42.694;23.336;2023-04-15T08:28:38;94762.16;;;15.19;62.96
740;BME280;354;42.694;23.336;2023-04-15T08:31:04;94757.28;;;15.06;61.12
740;BME280;354;42.694;23.336;2023-04-15T08:33:29;94755.84;;;15.52;59.91
740;BME280;354;42.694;23.336;2023-04-15T08:35:54;94753.41;;;15.77;57.85
740;BME280;354;42.694;23.336;2023-04-15T08:38:20;94742.13;;;15.97;56.76
740;BME280;354;42.694;23.336;2023-04-15T08:40:45;94747.97;;;16.52;55.55
740;BME280;354;42.694;23.336;2023-04-15T08:43:22;94746.16;;;16.68;53.56
740;BME280;354;42.694;23.336;2023-04-15T08:45:53;94744.97;;;17.01;53.20
740;BME280;354;42.694;23.336;2023-04-15T08:48:20;94753.44;;;16.82;56.81
740;BME280;354;42.694;23.336;2023-04-15T08:50:46;94751.25;;;16.74;64.28
740;BME280;354;42.694;23.336;2023-04-15T08:53:13;94736.13;;;16.80;62.71
740;BME280;354;42.694;23.336;2023-04-15T08:55:43;94743.31;;;16.84;62.01
740;BME280;354;42.694;23.336;2023-04-15T08:58:09;94741.81;;;17.39;60.49
740;BME280;354;42.694;23.336;2023-04-15T09:00:36;94741.78;;;17.19;56.67
740;BME280;354;42.694;23.336;2023-04-15T09:03:03;94725.59;;;17.41;55.01
740;BME280;354;42.694;23.336;2023-04-15T09:05:31;94733.00;;;17.13;55.92
740;BME280;354;42.694;23.336;2023-04-15T09:07:57;94707.78;;;17.21;55.62
740;BME280;354;42.694;23.336;2023-04-15T09:10:22;94726.13;;;17.28;57.17
740;BME280;354;42.694;23.336;2023-04-15T09:12:47;94724.78;;;17.00;54.85
740;BME280;354;42.694;23.336;2023-04-15T09:15:14;94728.91;;;16.60;57.04
740;BME280;354;42.694;23.336;2023-04-15T09:17:44;94719.88;;;16.03;57.98
740;BME280;354;42.694;23.336;2023-04-15T09:20:14;94710.25;;;15.92;58.16
740;BME280;354;42.694;23.336;2023-04-15T09:22:41;94679.09;;;15.67;57.73
740;BME280;354;42.694;23.336;2023-04-15T09:27:53;94715.50;;;16.29;57.54
740;BME280;354;42.694;23.336;2023-04-15T09:30:18;94700.09;;;16.21;56.52
740;BME280;354;42.694;23.336;2023-04-15T09:32:58;94729.38;;;16.52;55.35
740;BME280;354;42.694;23.336;2023-04-15T09:35:25;94716.88;;;16.47;54.26
740;BME280;354;42.694;23.336;2023-04-15T09:37:51;94721.09;;;17.21;54.13
740;BME280;354;42.694;23.336;2023-04-15T09:40:36;94717.63;;;17.97;52.63
740;BME280;354;42.694;23.336;2023-04-15T09:43:03;94696.50;;;18.26;51.06
740;BME280;354;42.694;23.336;2023-04-15T09:45:30;94711.28;;;18.58;49.49
740;BME280;354;42.694;23.336;2023-04-15T09:47:57;94720.28;;;18.72;48.40
740;BME280;354;42.694;23.336;2023-04-15T09:50:26;94717.63;;;18.62;47.40
740;BME280;354;42.694;23.336;2023-04-15T09:52:51;94718.63;;;18.16;48.39
740;BME280;354;42.694;23.336;2023-04-15T09:55:17;94706.47;;;17.75;47.97
740;BME280;354;42.694;23.336;2023-04-15T09:57:44;94723.75;;;17.93;47.46
740;BME280;354;42.694;23.336;2023-04-15T10:00:12;94723.66;;;18.13;47.02
740;BME280;354;42.694;23.336;2023-04-15T10:02:39;94716.88;;;18.56;47.94
740;BME280;354;42.694;23.336;2023-04-15T10:05:06;94723.13;;;18.91;45.79
740;BME280;354;42.694;23.336;2023-04-15T10:07:33;94719.19;;;18.78;45.00
740;BME280;354;42.694;23.336;2023-04-15T10:09:59;94711.84;;;19.04;45.17
740;BME280;354;42.694;23.336;2023-04-15T10:12:27;94709.56;;;19.27;43.59
740;BME280;354;42.694;23.336;2023-04-15T10:14:58;94707.41;;;19.68;41.86
740;BME280;354;42.694;23.336;2023-04-15T10:17:29;94684.75;;;19.65;40.86
740;BME280;354;42.694;23.336;2023-04-15T10:20:00;94705.00;;;19.32;40.81
740;BME280;354;42.694;23.336;2023-04-15T10:22:26;94694.56;;;19.36;40.51
740;BME280;354;42.694;23.336;2023-04-15T10:24:52;94697.66;;;19.82;39.88
740;BME280;354;42.694;23.336;2023-04-15T10:27:18;94690.94;;;20.14;39.08
740;BME280;354;42.694;23.336;2023-04-15T10:29:44;94689.66;;;20.97;38.98
740;BME280;354;42.694;23.336;2023-04-15T10:32:10;94685.56;;;21.04;37.88
740;BME280;354;42.694;23.336;2023-04-15T10:34:36;94683.84;;;21.27;38.48
740;BME280;354;42.694;23.336;2023-04-15T10:37:03;94676.84;;;21.13;39.15
740;BME280;354;42.694;23.336;2023-04-15T10:39:43;94679.22;;;20.58;38.39
740;BME280;354;42.694;23.336;2023-04-15T10:42:17;94680.19;;;20.19;38.44
740;BME280;354;42.694;23.336;2023-04-15T10:44:50;94677.41;;;20.05;38.24
740;BME280;354;42.694;23.336;2023-04-15T10:47:18;94673.31;;;20.13;39.13
740;BME280;354;42.694;23.336;2023-04-15T10:49:51;94677.03;;;20.17;37.90
740;BME280;354;42.694;23.336;2023-04-15T10:52:25;94665.06;;;19.56;38.02
740;BME280;354;42.694;23.336;2023-04-15T10:57:34;94659.53;;;19.18;38.44
740;BME280;354;42.694;23.336;2023-04-15T11:00:09;94672.94;;;19.03;38.46
740;BME280;354;42.694;23.336;2023-04-15T11:02:45;94672.91;;;19.42;38.41
740;BME280;354;42.694;23.336;2023-04-15T11:05:12;94668.72;;;20.18;38.04
740;BME280;354;42.694;23.336;2023-04-15T11:07:53;94651.56;;;20.43;34.88
740;BME280;354;42.694;23.336;2023-04-15T11:12:46;94664.19;;;19.66;33.31
740;BME280;354;42.694;23.336;2023-04-15T11:15:31;94648.38;;;19.74;34.68
740;BME280;354;42.694;23.336;2023-04-15T11:18:11;94655.13;;;20.15;38.28
740;BME280;354;42.694;23.336;2023-04-15T11:20:39;94637.72;;;20.41;39.02
740;BME280;354;42.694;23.336;2023-04-15T11:23:04;94656.78;;;20.35;37.89
740;BME280;354;42.694;23.336;2023-04-15T11:25:32;94644.72;;;20.80;37.45
740;BME280;354;42.694;23.336;2023-04-15T11:27:59;94642.03;;;20.80;37.08
740;BME280;354;42.694;23.336;2023-04-15T11:30:27;94662.72;;;21.26;36.44
740;BME280;354;42.694;23.336;2023-04-15T11:32:57;94660.31;;;21.29;36.50
740;BME280;354;42.694;23.336;2023-04-15T11:35:22;94648.28;;;21.46;35.98
740;BME280;354;42.694;23.336;2023-04-15T11:37:48;94658.03;;;21.69;35.90
740;BME280;354;42.694;23.336;2023-04-15T11:40:15;94657.28;;;21.82;34.27
740;BME280;354;42.694;23.336;2023-04-15T11:42:44;94660.06;;;22.05;34.77
740;BME280;354;42.694;23.336;2023-04-15T11:45:12;94657.63;;;22.22;33.83
740;BME280;354;42.694;23.336;2023-04-15T11:47:39;94648.16;;;21.83;34.24
740;BME280;354;42.694;23.336;2023-04-15T11:50:21;94656.41;;;21.87;34.32
740;BME280;354;42.694;23.336;2023-04-15T11:52:57;94642.44;;;21.44;34.20
740;BME280;354;42.694;23.336;2023-04-15T11:55:23;94639.91;;;21.66;31.19
740;BME280;354;42.694;23.336;2023-04-15T11:57:51;94646.41;;;21.27;33.24
740;BME280;354;42.694;23.336;2023-04-15T12:00:29;94639.16;;;20.95;33.04
740;BME280;354;42.694;23.336;2023-04-15T12:03:11;94635.63;;;21.00;32.37
740;BME280;354;42.694;23.336;2023-04-15T12:09:06;94638.97;;;21.43;32.55
740;BME280;354;42.694;23.336;2023-04-15T12:16:42;94637.16;;;21.20;36.65
740;BME280;354;42.694;23.336;2023-04-15T12:19:40;94637.69;;;21.54;36.60
740;BME280;354;42.694;23.336;2023-04-15T12:22:11;94638.28;;;21.51;32.99
740;BME280;354;42.694;23.336;2023-04-15T12:24:38;94624.59;;;21.53;33.27
740;BME280;354;42.694;23.336;2023-04-15T12:27:10;94631.84;;;21.52;33.14
740;BME280;354;42.694;23.336;2023-04-15T12:29:37;94643.09;;;21.17;32.34
740;BME280;354;42.694;23.336;2023-04-15T12:32:08;94636.59;;;21.23;32.36
740;BME280;354;42.694;23.336;2023-04-15T12:34:37;94637.88;;;21.25;32.21
740;BME280;354;42.694;23.336;2023-04-15T12:37:05;94642.44;;;21.57;32.64
740;BME280;354;42.694;23.336;2023-04-15T12:39:34;94636.88;;;21.40;34.03
740;BME280;354;42.694;23.336;2023-04-15T12:42:00;94639.03;;;21.71;33.93
740;BME280;354;42.694;23.336;2023-04-15T12:44:26;94643.88;;;21.96;36.38
740;BME280;354;42.694;23.336;2023-04-15T12:46:52;94647.75;;;21.90;33.39
740;BME280;354;42.694;23.336;2023-04-15T12:49:20;94647.78;;;22.04;32.38
740;BME280;354;42.694;23.336;2023-04-15T12:51:49;94642.88;;;21.78;32.09
740;BME280;354;42.694;23.336;2023-04-15T12:54:16;94642.88;;;21.65;33.82
740;BME280;354;42.694;23.336;2023-04-15T12:56:42;94642.38;;;21.63;32.65
740;BME280;354;42.694;23.336;2023-04-15T12:59:07;94629.50;;;21.78;33.46
740;BME280;354;42.694;23.336;2023-04-15T13:01:33;94643.22;;;22.04;32.60
740;BME280;354;42.694;23.336;2023-04-15T13:03:58;94627.03;;;21.96;35.17
740;BME280;354;42.694;23.336;2023-04-15T13:06:23;94653.47;;;22.16;34.84
740;BME280;354;42.694;23.336;2023-04-15T13:08:49;94625.25;;;22.05;33.95
740;BME280;354;42.694;23.336;2023-04-15T13:11:15;94641.16;;;22.15;32.75
740;BME280;354;42.694;23.336;2023-04-15T13:13:41;94639.31;;;21.97;33.03
740;BME280;354;42.694;23.336;2023-04-15T13:16:07;94643.09;;;21.82;32.60
740;BME280;354;42.694;23.336;2023-04-15T13:18:32;94645.75;;;21.68;31.03
740;BME280;354;42.694;23.336;2023-04-15T13:20:59;94642.38;;;21.63;32.31
740;BME280;354;42.694;23.336;2023-04-15T13:23:25;94648.84;;;21.89;30.92
740;BME280;354;42.694;23.336;2023-04-15T13:25:50;94642.16;;;21.59;30.39
740;BME280;354;42.694;23.336;2023-04-15T13:28:16;94645.34;;;21.10;30.61
740;BME280;354;42.694;23.336;2023-04-15T13:30:41;94624.97;;;21.33;31.07
740;BME280;354;42.694;23.336;2023-04-15T13:33:08;94640.34;;;21.41;32.10
740;BME280;354;42.694;23.336;2023-04-15T13:35:33;94641.97;;;21.55;32.19
740;BME280;354;42.694;23.336;2023-04-15T13:37:59;94630.41;;;21.41;32.35
740;BME280;354;42.694;23.336;2023-04-15T13:40:25;94630.88;;;21.29;33.58
740;BME280;354;42.694;23.336;2023-04-15T13:42:50;94633.84;;;21.28;33.43
740;BME280;354;42.694;23.336;2023-04-15T13:45:17;94624.63;;;21.01;33.67